Montreal/Mirabel, Ontario

4:36 PM EDT on April 23, 2017 (GMT -0400)
Montreal International (Mirabel) | | Change Station

Elev 269 ft 45.68 °N, 74.03 °W | Updated 36 minutes ago

Mostly Cloudy
Mostly Cloudy
64 °F
Feels Like 64 °F
N
13
Wind Variable Wind from SW
Gusts 24 mph

Today
High -- | Low -- °F
--% Chance of Precip.
Yesterday
High -- | Low -- °F
Precip. -- in
Pressure 29.91 in
Visibility 45.0 miles
Clouds Few 5000 ft
Few 9000 ft
Few 22000 ft
Mostly Cloudy 30000 ft
Dew Point 36 °F
Humidity 34%
Rainfall 0.00 in
Snow Depth Not available.
5:56 AM 7:53 PM
Waning Crescent, 10% visible
METAR CYMX 232000Z 22011G21KT 45SM FEW050 FEW090 FEW220 BKN300 18/02 A2990 RMK CU1AC1CI1CI4 CU TR AC TR SLP128 DENSITY ALT 600FT
Pressure 29.91 in
Visibility 45.0 miles
Clouds Few 5000 ft
Few 9000 ft
Few 22000 ft
Mostly Cloudy 30000 ft
Dew Point 36 °F
Humidity 34%
Rainfall 0.00 in
Snow Depth Not available.
5:56 AM 7:53 PM
Waning Crescent, 10% visible
METAR CYMX 232000Z 22011G21KT 45SM FEW050 FEW090 FEW220 BKN300 18/02 A2990 RMK CU1AC1CI1CI4 CU TR AC TR SLP128 DENSITY ALT 600FT

Get Severe Weather Alerts

Thanks for signing up!

Be on the lookout for a verification email in your inbox.

You'll start receiving the daily forecast at 8 AM.

×

10-Day Weather Forecast

Almanac

Astronomy

Apr. 23, 2017 Rise Set
Actual Time
Civil Twilight
Nautical Twilight
Astronomical Twilight
Moon
Length of Visible Light
Length of Day
Tomorrow will be .
, % of the Moon is Illuminated

Today's Extremes

Country Highs Country Lows

Community

WunderPhotos

WunderBlog® & News

Nearby

Air Quality

  Air Quality AQ Index Pollutant
Not available.

Snow Depth

Station Depth Elevation

Earthquake Activity

City Distance Mag. Time & Date
Minimum magnitude displayed is 2.5.

Coastal Water Temperatures

Place Temperature

Stations

Nearby Weather Stations

Station Location Temp. Windchill Dew Point Humidity Wind Precip. Elev Updated Type
                   

Watches & Warnings

There are currently no watches in effect.